sensor_id;sensor_type;location;lat;lon;timestamp;noise_LAeq;noise_LA_min;noise_LA_max;noise_LA01;noise_LA95
37279;Laerm;7458;49.002;8.472;2023-07-16T00:01:46;89.65;48.43;98.13;;
37279;Laerm;7458;49.002;8.472;2023-07-16T00:04:12;89.60;47.83;97.26;;
37279;Laerm;7458;49.002;8.472;2023-07-16T00:06:37;89.37;46.78;97.20;;
37279;Laerm;7458;49.002;8.472;2023-07-16T00:09:03;88.81;45.83;97.79;;
37279;Laerm;7458;49.002;8.472;2023-07-16T00:11:29;88.91;46.18;96.63;;
37279;Laerm;7458;49.002;8.472;2023-07-16T00:13:55;88.86;46.23;97.03;;
37279;Laerm;7458;49.002;8.472;2023-07-16T00:17:57;88.96;46.10;97.38;;
37279;Laerm;7458;49.002;8.472;2023-07-16T00:20:23;88.88;44.97;97.60;;
37279;Laerm;7458;49.002;8.472;2023-07-16T00:22:50;88.88;46.05;97.63;;
37279;Laerm;7458;49.002;8.472;2023-07-16T00:25:16;88.89;44.31;97.00;;
37279;Laerm;7458;49.002;8.472;2023-07-16T00:27:42;88.98;43.54;98.04;;
37279;Laerm;7458;49.002;8.472;2023-07-16T00:30:21;88.95;46.28;97.52;;
37279;Laerm;7458;49.002;8.472;2023-07-16T00:32:47;88.85;46.10;97.06;;
37279;Laerm;7458;49.002;8.472;2023-07-16T00:35:13;89.04;45.39;97.27;;
37279;Laerm;7458;49.002;8.472;2023-07-16T00:37:39;88.90;45.27;97.83;;
37279;Laerm;7458;49.002;8.472;2023-07-16T00:40:05;88.92;46.48;97.01;;
37279;Laerm;7458;49.002;8.472;2023-07-16T00:42:31;89.03;45.48;97.62;;
37279;Laerm;7458;49.002;8.472;2023-07-16T00:44:57;89.07;45.75;97.02;;
37279;Laerm;7458;49.002;8.472;2023-07-16T00:47:23;89.15;45.63;97.81;;
37279;Laerm;7458;49.002;8.472;2023-07-16T00:49:49;89.42;46.15;97.27;;
37279;Laerm;7458;49.002;8.472;2023-07-16T00:52:19;89.47;45.86;98.20;;
37279;Laerm;7458;49.002;8.472;2023-07-16T00:54:47;89.52;46.66;97.57;;
37279;Laerm;7458;49.002;8.472;2023-07-16T00:57:14;89.75;47.12;98.05;;
37279;Laerm;7458;49.002;8.472;2023-07-16T00:59:39;89.94;46.05;97.89;;
37279;Laerm;7458;49.002;8.472;2023-07-16T01:02:05;89.96;46.82;97.53;;
37279;Laerm;7458;49.002;8.472;2023-07-16T01:04:31;89.77;46.28;97.54;;
37279;Laerm;7458;49.002;8.472;2023-07-16T01:07:04;89.52;42.98;97.34;;
37279;Laerm;7458;49.002;8.472;2023-07-16T01:09:32;89.27;42.88;98.22;;
37279;Laerm;7458;49.002;8.472;2023-07-16T01:12:00;89.13;45.54;97.45;;
37279;Laerm;7458;49.002;8.472;2023-07-16T01:14:27;89.18;45.45;97.96;;
37279;Laerm;7458;49.002;8.472;2023-07-16T01:16:53;89.10;46.30;98.03;;
37279;Laerm;7458;49.002;8.472;2023-07-16T01:19:25;89.12;42.65;97.77;;
37279;Laerm;7458;49.002;8.472;2023-07-16T01:22:26;89.14;46.35;97.00;;
37279;Laerm;7458;49.002;8.472;2023-07-16T01:25:29;89.00;45.80;96.68;;
37279;Laerm;7458;49.002;8.472;2023-07-16T01:30:34;89.15;45.33;96.80;;
37279;Laerm;7458;49.002;8.472;2023-07-16T01:33:03;89.05;45.01;97.05;;
37279;Laerm;7458;49.002;8.472;2023-07-16T01:35:30;89.25;46.10;97.97;;
37279;Laerm;7458;49.002;8.472;2023-07-16T01:37:57;89.18;43.44;97.03;;
37279;Laerm;7458;49.002;8.472;2023-07-16T01:40:23;89.12;45.54;97.66;;
37279;Laerm;7458;49.002;8.472;2023-07-16T01:42:49;89.07;45.33;97.74;;
37279;Laerm;7458;49.002;8.472;2023-07-16T01:45:15;89.27;45.86;97.51;;
37279;Laerm;7458;49.002;8.472;2023-07-16T01:48:05;89.14;41.96;98.08;;
37279;Laerm;7458;49.002;8.472;2023-07-16T01:50:35;89.13;44.69;97.31;;
37279;Laerm;7458;49.002;8.472;2023-07-16T01:53:01;89.07;44.73;97.14;;
37279;Laerm;7458;49.002;8.472;2023-07-16T01:55:27;89.07;45.77;97.30;;
37279;Laerm;7458;49.002;8.472;2023-07-16T01:57:52;88.99;45.23;96.94;;
37279;Laerm;7458;49.002;8.472;2023-07-16T02:00:18;88.78;45.36;96.93;;
37279;Laerm;7458;49.002;8.472;2023-07-16T02:02:44;88.71;44.90;97.10;;
37279;Laerm;7458;49.002;8.472;2023-07-16T02:05:10;88.67;45.20;96.59;;
37279;Laerm;7458;49.002;8.472;2023-07-16T02:07:36;88.79;45.23;96.93;;
37279;Laerm;7458;49.002;8.472;2023-07-16T02:10:02;88.16;44.87;96.46;;
37279;Laerm;7458;49.002;8.472;2023-07-16T02:12:28;87.77;45.07;95.79;;
37279;Laerm;7458;49.002;8.472;2023-07-16T02:14:54;87.96;44.43;96.53;;
37279;Laerm;7458;49.002;8.472;2023-07-16T02:17:19;88.04;44.47;96.16;;
37279;Laerm;7458;49.002;8.472;2023-07-16T02:19:45;88.15;44.58;97.67;;
37279;Laerm;7458;49.002;8.472;2023-07-16T02:22:11;88.03;43.77;96.96;;
37279;Laerm;7458;49.002;8.472;2023-07-16T02:24:37;88.17;45.14;96.77;;
37279;Laerm;7458;49.002;8.472;2023-07-16T02:27:03;87.92;44.39;96.83;;
37279;Laerm;7458;49.002;8.472;2023-07-16T02:29:31;87.84;43.49;96.51;;
37279;Laerm;7458;49.002;8.472;2023-07-16T02:31:56;87.85;44.27;97.00;;
37279;Laerm;7458;49.002;8.472;2023-07-16T02:34:22;87.86;44.80;95.64;;
37279;Laerm;7458;49.002;8.472;2023-07-16T02:36:48;87.79;44.43;96.21;;
37279;Laerm;7458;49.002;8.472;2023-07-16T02:39:14;87.71;43.04;97.00;;
37279;Laerm;7458;49.002;8.472;2023-07-16T02:41:39;87.83;44.90;96.59;;
37279;Laerm;7458;49.002;8.472;2023-07-16T02:44:08;87.78;44.51;96.92;;
37279;Laerm;7458;49.002;8.472;2023-07-16T02:46:34;87.83;44.58;96.39;;
37279;Laerm;7458;49.002;8.472;2023-07-16T02:49:01;87.80;41.82;97.13;;
37279;Laerm;7458;49.002;8.472;2023-07-16T02:51:27;87.91;44.69;96.79;;
37279;Laerm;7458;49.002;8.472;2023-07-16T02:53:52;87.85;45.04;95.98;;
37279;Laerm;7458;49.002;8.472;2023-07-16T02:56:19;87.73;44.83;96.57;;
37279;Laerm;7458;49.002;8.472;2023-07-16T02:58:45;87.67;44.90;96.70;;
37279;Laerm;7458;49.002;8.472;2023-07-16T03:01:12;87.86;44.58;96.10;;
37279;Laerm;7458;49.002;8.472;2023-07-16T03:03:38;87.71;43.99;97.09;;
37279;Laerm;7458;49.002;8.472;2023-07-16T03:06:04;87.64;45.39;96.45;;
37279;Laerm;7458;49.002;8.472;2023-07-16T03:08:30;87.57;44.83;96.43;;
37279;Laerm;7458;49.002;8.472;2023-07-16T03:10:57;87.66;44.07;96.53;;
37279;Laerm;7458;49.002;8.472;2023-07-16T03:13:24;87.78;44.51;96.52;;
37279;Laerm;7458;49.002;8.472;2023-07-16T03:15:50;87.97;44.90;96.43;;
37279;Laerm;7458;49.002;8.472;2023-07-16T03:18:18;87.83;44.94;96.27;;
37279;Laerm;7458;49.002;8.472;2023-07-16T03:20:45;88.01;44.20;96.97;;
37279;Laerm;7458;49.002;8.472;2023-07-16T03:23:11;87.97;42.16;96.55;;
37279;Laerm;7458;49.002;8.472;2023-07-16T03:25:37;88.15;45.33;98.01;;
37279;Laerm;7458;49.002;8.472;2023-07-16T03:28:03;87.96;45.23;95.93;;
37279;Laerm;7458;49.002;8.472;2023-07-16T03:30:30;87.94;43.72;96.75;;
37279;Laerm;7458;49.002;8.472;2023-07-16T03:32:56;88.20;44.97;96.89;;
37279;Laerm;7458;49.002;8.472;2023-07-16T03:35:22;87.94;45.14;96.51;;
37279;Laerm;7458;49.002;8.472;2023-07-16T03:37:48;88.24;45.39;96.52;;
37279;Laerm;7458;49.002;8.472;2023-07-16T03:40:23;88.08;45.30;96.59;;
37279;Laerm;7458;49.002;8.472;2023-07-16T03:42:50;88.11;45.45;96.86;;
37279;Laerm;7458;49.002;8.472;2023-07-16T03:45:16;87.98;44.73;97.17;;
37279;Laerm;7458;49.002;8.472;2023-07-16T03:47:42;87.75;45.36;96.05;;
37279;Laerm;7458;49.002;8.472;2023-07-16T03:50:08;87.87;44.90;96.84;;
37279;Laerm;7458;49.002;8.472;2023-07-16T03:52:34;87.75;44.73;97.66;;
37279;Laerm;7458;49.002;8.472;2023-07-16T03:55:00;88.00;44.69;97.00;;
37279;Laerm;7458;49.002;8.472;2023-07-16T03:57:28;87.96;45.36;96.37;;
37279;Laerm;7458;49.002;8.472;2023-07-16T03:59:54;88.06;44.98;96.58;;
37279;Laerm;7458;49.002;8.472;2023-07-16T04:02:20;87.98;45.51;96.37;;
37279;Laerm;7458;49.002;8.472;2023-07-16T04:04:46;88.06;43.58;97.29;;
37279;Laerm;7458;49.002;8.472;2023-07-16T04:07:12;88.04;43.77;96.72;;
37279;Laerm;7458;49.002;8.472;2023-07-16T04:09:39;87.99;45.04;96.89;;
37279;Laerm;7458;49.002;8.472;2023-07-16T04:12:06;88.00;46.89;96.87;;
37279;Laerm;7458;49.002;8.472;2023-07-16T04:14:33;88.04;45.30;96.00;;
37279;Laerm;7458;49.002;8.472;2023-07-16T04:16:58;88.08;43.63;96.25;;
37279;Laerm;7458;49.002;8.472;2023-07-16T04:19:24;88.02;44.80;97.93;;
37279;Laerm;7458;49.002;8.472;2023-07-16T04:21:51;88.10;44.58;97.81;;
37279;Laerm;7458;49.002;8.472;2023-07-16T04:24:16;88.11;44.47;97.14;;
37279;Laerm;7458;49.002;8.472;2023-07-16T04:26:42;88.17;44.65;96.86;;
37279;Laerm;7458;49.002;8.472;2023-07-16T04:29:09;88.19;45.27;96.97;;
37279;Laerm;7458;49.002;8.472;2023-07-16T04:31:35;88.36;44.90;97.20;;
37279;Laerm;7458;49.002;8.472;2023-07-16T04:34:01;88.31;45.86;96.13;;
37279;Laerm;7458;49.002;8.472;2023-07-16T04:36:27;88.23;45.48;96.77;;
37279;Laerm;7458;49.002;8.472;2023-07-16T04:38:53;88.23;42.59;97.32;;
37279;Laerm;7458;49.002;8.472;2023-07-16T04:41:19;88.04;44.69;96.84;;
37279;Laerm;7458;49.002;8.472;2023-07-16T04:43:46;88.01;45.07;96.89;;
37279;Laerm;7458;49.002;8.472;2023-07-16T04:46:11;88.39;45.57;96.81;;
37279;Laerm;7458;49.002;8.472;2023-07-16T04:48:37;88.50;41.53;96.92;;
37279;Laerm;7458;49.002;8.472;2023-07-16T04:51:04;88.52;43.29;98.67;;
37279;Laerm;7458;49.002;8.472;2023-07-16T04:53:31;88.63;46.23;96.92;;
37279;Laerm;7458;49.002;8.472;2023-07-16T04:55:57;88.65;46.02;97.14;;
37279;Laerm;7458;49.002;8.472;2023-07-16T04:58:23;88.79;46.13;97.65;;
37279;Laerm;7458;49.002;8.472;2023-07-16T05:00:49;88.88;46.95;96.76;;
37279;Laerm;7458;49.002;8.472;2023-07-16T05:03:15;88.77;46.15;97.16;;
37279;Laerm;7458;49.002;8.472;2023-07-16T05:05:41;88.85;46.23;97.27;;
37279;Laerm;7458;49.002;8.472;2023-07-16T05:08:07;88.99;46.52;97.21;;
37279;Laerm;7458;49.002;8.472;2023-07-16T05:10:33;88.85;46.40;96.89;;
37279;Laerm;7458;49.002;8.472;2023-07-16T05:13:02;89.07;46.48;97.30;;
37279;Laerm;7458;49.002;8.472;2023-07-16T05:15:31;89.04;46.89;97.13;;
37279;Laerm;7458;49.002;8.472;2023-07-16T05:17:57;89.20;46.59;97.80;;
37279;Laerm;7458;49.002;8.472;2023-07-16T05:20:23;89.21;46.50;97.50;;
37279;Laerm;7458;49.002;8.472;2023-07-16T05:22:51;89.29;47.22;97.14;;
37279;Laerm;7458;49.002;8.472;2023-07-16T05:25:17;89.29;46.87;97.14;;
37279;Laerm;7458;49.002;8.472;2023-07-16T05:27:43;89.51;48.18;97.21;;
37279;Laerm;7458;49.002;8.472;2023-07-16T05:30:09;89.49;47.46;98.21;;
37279;Laerm;7458;49.002;8.472;2023-07-16T05:32:35;89.89;48.83;97.94;;
37279;Laerm;7458;49.002;8.472;2023-07-16T05:35:01;89.93;48.15;97.40;;
37279;Laerm;7458;49.002;8.472;2023-07-16T05:37:27;89.85;48.45;97.99;;
37279;Laerm;7458;49.002;8.472;2023-07-16T05:39:53;89.84;47.90;97.53;;
37279;Laerm;7458;49.002;8.472;2023-07-16T05:42:19;90.10;48.48;98.07;;
37279;Laerm;7458;49.002;8.472;2023-07-16T05:44:47;90.63;51.33;97.70;;
37279;Laerm;7458;49.002;8.472;2023-07-16T05:47:13;90.70;49.96;98.02;;
37279;Laerm;7458;49.002;8.472;2023-07-16T05:49:39;90.64;68.24;97.56;;
37279;Laerm;7458;49.002;8.472;2023-07-16T05:52:05;91.02;51.98;98.16;;
37279;Laerm;7458;49.002;8.472;2023-07-16T05:54:31;91.29;51.25;98.43;;
37279;Laerm;7458;49.002;8.472;2023-07-16T05:56:57;91.37;68.26;100.09;;
37279;Laerm;7458;49.002;8.472;2023-07-16T05:59:23;90.79;68.32;98.32;;
37279;Laerm;7458;49.002;8.472;2023-07-16T06:01:49;89.95;50.18;97.84;;
37279;Laerm;7458;49.002;8.472;2023-07-16T06:04:15;90.01;68.30;98.22;;
37279;Laerm;7458;49.002;8.472;2023-07-16T06:06:40;90.57;68.24;98.36;;
37279;Laerm;7458;49.002;8.472;2023-07-16T06:09:06;90.97;51.46;97.94;;
37279;Laerm;7458;49.002;8.472;2023-07-16T06:11:32;90.73;68.24;98.07;;
37279;Laerm;7458;49.002;8.472;2023-07-16T06:13:58;90.41;49.47;97.88;;
37279;Laerm;7458;49.002;8.472;2023-07-16T06:16:23;89.27;46.71;98.54;;
37279;Laerm;7458;49.002;8.472;2023-07-16T06:18:49;88.96;47.70;97.49;;
37279;Laerm;7458;49.002;8.472;2023-07-16T06:21:15;88.79;46.89;97.38;;
37279;Laerm;7458;49.002;8.472;2023-07-16T06:23:43;88.54;47.14;97.27;;
37279;Laerm;7458;49.002;8.472;2023-07-16T06:26:08;88.00;47.86;96.73;;
37279;Laerm;7458;49.002;8.472;2023-07-16T06:28:34;87.67;46.73;97.05;;
37279;Laerm;7458;49.002;8.472;2023-07-16T06:31:20;87.13;46.15;97.12;;
37279;Laerm;7458;49.002;8.472;2023-07-16T06:33:46;84.04;46.89;94.97;;
37279;Laerm;7458;49.002;8.472;2023-07-16T06:36:15;79.94;45.63;91.78;;
37279;Laerm;7458;49.002;8.472;2023-07-16T06:38:40;78.30;42.59;91.96;;
37279;Laerm;7458;49.002;8.472;2023-07-16T06:41:07;79.66;42.16;93.46;;
37279;Laerm;7458;49.002;8.472;2023-07-16T06:43:32;90.78;40.79;101.94;;
37279;Laerm;7458;49.002;8.472;2023-07-16T06:45:58;51.92;40.53;70.92;;
37279;Laerm;7458;49.002;8.472;2023-07-16T06:48:24;49.06;41.14;66.16;;
37279;Laerm;7458;49.002;8.472;2023-07-16T06:50:50;55.48;41.06;72.85;;
37279;Laerm;7458;49.002;8.472;2023-07-16T06:53:17;50.96;41.38;69.81;;
37279;Laerm;7458;49.002;8.472;2023-07-16T06:55:43;51.21;40.62;74.99;;
37279;Laerm;7458;49.002;8.472;2023-07-16T06:58:13;55.75;40.62;73.06;;
37279;Laerm;7458;49.002;8.472;2023-07-16T07:00:39;49.21;41.30;66.64;;
37279;Laerm;7458;49.002;8.472;2023-07-16T07:03:05;48.72;41.46;66.03;;
37279;Laerm;7458;49.002;8.472;2023-07-16T07:05:30;53.75;42.03;71.61;;
37279;Laerm;7458;49.002;8.472;2023-07-16T07:07:56;45.92;41.30;64.07;;
37279;Laerm;7458;49.002;8.472;2023-07-16T07:10:22;48.86;41.30;74.61;;
37279;Laerm;7458;49.002;8.472;2023-07-16T07:12:48;44.60;40.71;54.76;;
37279;Laerm;7458;49.002;8.472;2023-07-16T07:15:14;46.08;42.22;59.83;;
37279;Laerm;7458;49.002;8.472;2023-07-16T07:17:39;57.33;42.76;75.07;;
37279;Laerm;7458;49.002;8.472;2023-07-16T07:20:08;54.97;41.82;72.22;;
37279;Laerm;7458;49.002;8.472;2023-07-16T07:22:34;58.55;42.69;76.65;;
37279;Laerm;7458;49.002;8.472;2023-07-16T07:25:00;51.08;42.16;68.53;;
37279;Laerm;7458;49.002;8.472;2023-07-16T07:27:26;56.70;42.93;73.65;;
37279;Laerm;7458;49.002;8.472;2023-07-16T07:29:52;47.22;41.96;62.38;;
37279;Laerm;7458;49.002;8.472;2023-07-16T07:32:21;52.65;42.93;71.90;;
37279;Laerm;7458;49.002;8.472;2023-07-16T07:34:48;57.13;44.43;74.12;;
37279;Laerm;7458;49.002;8.472;2023-07-16T07:37:17;50.16;43.14;69.43;;
37279;Laerm;7458;49.002;8.472;2023-07-16T07:39:43;46.08;42.36;66.46;;
37279;Laerm;7458;49.002;8.472;2023-07-16T07:42:14;53.57;42.22;67.50;;
37279;Laerm;7458;49.002;8.472;2023-07-16T07:44:40;53.28;42.93;72.88;;
37279;Laerm;7458;49.002;8.472;2023-07-16T07:47:06;54.44;43.05;70.98;;
37279;Laerm;7458;49.002;8.472;2023-07-16T07:49:34;53.59;42.71;72.55;;
37279;Laerm;7458;49.002;8.472;2023-07-16T07:52:00;50.24;43.90;70.19;;
37279;Laerm;7458;49.002;8.472;2023-07-16T07:54:27;56.30;43.63;73.42;;
37279;Laerm;7458;49.002;8.472;2023-07-16T07:56:53;57.37;44.19;73.41;;
37279;Laerm;7458;49.002;8.472;2023-07-16T07:59:19;55.05;44.47;68.18;;
37279;Laerm;7458;49.002;8.472;2023-07-16T08:01:45;56.80;42.98;72.00;;
37279;Laerm;7458;49.002;8.472;2023-07-16T08:04:10;53.92;40.53;70.72;;
37279;Laerm;7458;49.002;8.472;2023-07-16T08:06:36;48.89;42.22;71.91;;
37279;Laerm;7458;49.002;8.472;2023-07-16T08:09:02;54.84;41.22;73.52;;
37279;Laerm;7458;49.002;8.472;2023-07-16T08:11:28;53.85;41.75;70.86;;
37279;Laerm;7458;49.002;8.472;2023-07-16T08:13:53;51.65;40.62;69.69;;
37279;Laerm;7458;49.002;8.472;2023-07-16T08:16:20;47.00;40.98;60.49;;
37279;Laerm;7458;49.002;8.472;2023-07-16T08:18:45;53.84;41.38;70.17;;
37279;Laerm;7458;49.002;8.472;2023-07-16T08:21:11;52.08;40.62;67.63;;
37279;Laerm;7458;49.002;8.472;2023-07-16T08:23:51;51.73;41.22;72.74;;
37279;Laerm;7458;49.002;8.472;2023-07-16T08:26:18;58.28;41.96;75.19;;
37279;Laerm;7458;49.002;8.472;2023-07-16T08:28:44;57.75;41.30;80.07;;
37279;Laerm;7458;49.002;8.472;2023-07-16T08:31:11;52.53;41.38;67.61;;
37279;Laerm;7458;49.002;8.472;2023-07-16T08:33:38;57.81;39.46;71.05;;
37279;Laerm;7458;49.002;8.472;2023-07-16T08:36:04;53.55;40.71;72.10;;
37279;Laerm;7458;49.002;8.472;2023-07-16T08:38:30;49.72;39.58;74.07;;
37279;Laerm;7458;49.002;8.472;2023-07-16T08:40:55;57.90;40.03;75.09;;
37279;Laerm;7458;49.002;8.472;2023-07-16T08:43:22;57.13;41.14;84.11;;
37279;Laerm;7458;49.002;8.472;2023-07-16T08:45:49;56.20;43.24;72.59;;
37279;Laerm;7458;49.002;8.472;2023-07-16T08:48:17;53.81;41.53;68.47;;
37279;Laerm;7458;49.002;8.472;2023-07-16T08:50:49;55.49;43.29;73.35;;
37279;Laerm;7458;49.002;8.472;2023-07-16T08:53:16;56.95;43.86;79.24;;
37279;Laerm;7458;49.002;8.472;2023-07-16T08:55:47;51.75;43.72;68.03;;
37279;Laerm;7458;49.002;8.472;2023-07-16T08:58:17;57.19;44.19;75.03;;
37279;Laerm;7458;49.002;8.472;2023-07-16T09:00:44;54.12;43.29;66.92;;
37279;Laerm;7458;49.002;8.472;2023-07-16T09:03:14;50.12;42.65;65.73;;
37279;Laerm;7458;49.002;8.472;2023-07-16T09:05:44;57.59;43.29;74.19;;
37279;Laerm;7458;49.002;8.472;2023-07-16T09:08:10;56.66;43.29;72.24;;
37279;Laerm;7458;49.002;8.472;2023-07-16T09:10:37;56.07;43.04;71.62;;
37279;Laerm;7458;49.002;8.472;2023-07-16T09:13:05;50.58;43.19;63.98;;
37279;Laerm;7458;49.002;8.472;2023-07-16T09:15:31;53.45;42.71;73.36;;
37279;Laerm;7458;49.002;8.472;2023-07-16T09:17:56;58.55;41.82;79.94;;
37279;Laerm;7458;49.002;8.472;2023-07-16T09:20:22;53.27;40.71;71.91;;
37279;Laerm;7458;49.002;8.472;2023-07-16T09:22:57;53.00;41.75;68.29;;
37279;Laerm;7458;49.002;8.472;2023-07-16T09:25:31;50.04;41.68;65.87;;
37279;Laerm;7458;49.002;8.472;2023-07-16T09:28:02;56.46;42.82;77.94;;
37279;Laerm;7458;49.002;8.472;2023-07-16T09:30:32;52.20;40.53;70.24;;
37279;Laerm;7458;49.002;8.472;2023-07-16T09:33:21;52.53;42.29;64.94;;
37279;Laerm;7458;49.002;8.472;2023-07-16T09:35:49;52.83;40.23;70.49;;
37279;Laerm;7458;49.002;8.472;2023-07-16T09:38:16;57.24;39.81;80.03;;
37279;Laerm;7458;49.002;8.472;2023-07-16T09:40:43;54.87;40.43;71.72;;
37279;Laerm;7458;49.002;8.472;2023-07-16T09:43:11;53.09;41.22;69.91;;
37279;Laerm;7458;49.002;8.472;2023-07-16T09:45:38;45.72;41.14;60.00;;
37279;Laerm;7458;49.002;8.472;2023-07-16T09:48:04;56.05;40.89;77.66;;
37279;Laerm;7458;49.002;8.472;2023-07-16T09:50:35;57.62;43.77;79.35;;
37279;Laerm;7458;49.002;8.472;2023-07-16T09:53:05;51.64;40.03;69.32;;
37279;Laerm;7458;49.002;8.472;2023-07-16T09:55:35;53.24;41.38;71.74;;
37279;Laerm;7458;49.002;8.472;2023-07-16T09:58:08;51.23;42.71;69.05;;
37279;Laerm;7458;49.002;8.472;2023-07-16T10:00:37;47.71;41.14;60.44;;
37279;Laerm;7458;49.002;8.472;2023-07-16T10:03:06;52.48;43.81;69.30;;
37279;Laerm;7458;49.002;8.472;2023-07-16T10:05:37;57.61;42.59;77.45;;
37279;Laerm;7458;49.002;8.472;2023-07-16T10:08:03;51.19;41.06;71.60;;
37279;Laerm;7458;49.002;8.472;2023-07-16T10:10:40;49.43;41.61;63.08;;
37279;Laerm;7458;49.002;8.472;2023-07-16T10:13:07;57.95;41.53;73.30;;
37279;Laerm;7458;49.002;8.472;2023-07-16T10:15:34;56.69;41.30;75.32;;
37279;Laerm;7458;49.002;8.472;2023-07-16T10:18:00;53.60;40.62;70.83;;
37279;Laerm;7458;49.002;8.472;2023-07-16T10:20:36;52.99;41.38;67.46;;
37279;Laerm;7458;49.002;8.472;2023-07-16T10:23:16;53.00;40.80;71.19;;
37279;Laerm;7458;49.002;8.472;2023-07-16T10:25:59;56.37;42.16;70.51;;
37279;Laerm;7458;49.002;8.472;2023-07-16T10:28:25;56.27;42.88;75.97;;
37279;Laerm;7458;49.002;8.472;2023-07-16T10:30:51;55.82;43.09;71.71;;
37279;Laerm;7458;49.002;8.472;2023-07-16T10:33:17;51.87;41.61;69.19;;
37279;Laerm;7458;49.002;8.472;2023-07-16T10:35:45;53.57;41.06;71.47;;
37279;Laerm;7458;49.002;8.472;2023-07-16T10:38:11;51.89;40.98;69.88;;
37279;Laerm;7458;49.002;8.472;2023-07-16T10:40:41;45.31;39.81;59.98;;
37279;Laerm;7458;49.002;8.472;2023-07-16T10:43:08;51.98;40.43;71.89;;
37279;Laerm;7458;49.002;8.472;2023-07-16T10:45:34;45.43;41.89;61.16;;
37279;Laerm;7458;49.002;8.472;2023-07-16T10:48:00;51.28;42.03;71.08;;
37279;Laerm;7458;49.002;8.472;2023-07-16T10:50:26;54.35;42.88;67.08;;
37279;Laerm;7458;49.002;8.472;2023-07-16T10:52:56;57.63;39.58;84.87;;
37279;Laerm;7458;49.002;8.472;2023-07-16T10:55:23;52.27;41.46;71.78;;
37279;Laerm;7458;49.002;8.472;2023-07-16T10:57:50;45.99;40.33;62.09;;
37279;Laerm;7458;49.002;8.472;2023-07-16T11:00:17;53.80;41.89;74.35;;
37279;Laerm;7458;49.002;8.472;2023-07-16T11:02:44;47.72;41.30;61.58;;
37279;Laerm;7458;49.002;8.472;2023-07-16T11:05:14;50.60;42.53;67.27;;
37279;Laerm;7458;49.002;8.472;2023-07-16T11:07:48;46.93;42.35;62.84;;
37279;Laerm;7458;49.002;8.472;2023-07-16T11:10:18;51.01;41.30;68.52;;
37279;Laerm;7458;49.002;8.472;2023-07-16T11:12:44;52.08;38.74;66.25;;
37279;Laerm;7458;49.002;8.472;2023-07-16T11:15:10;49.51;42.47;66.15;;
37279;Laerm;7458;49.002;8.472;2023-07-16T11:17:39;55.53;40.71;77.00;;
37279;Laerm;7458;49.002;8.472;2023-07-16T11:20:09;53.76;43.54;72.27;;
37279;Laerm;7458;49.002;8.472;2023-07-16T11:22:38;44.96;41.06;55.77;;
37279;Laerm;7458;49.002;8.472;2023-07-16T11:25:11;50.96;39.46;67.98;;
37279;Laerm;7458;49.002;8.472;2023-07-16T11:27:41;53.88;39.81;69.84;;
37279;Laerm;7458;49.002;8.472;2023-07-16T11:30:09;48.02;38.05;65.98;;
37279;Laerm;7458;49.002;8.472;2023-07-16T11:32:37;52.44;39.08;70.82;;
37279;Laerm;7458;49.002;8.472;2023-07-16T11:35:06;48.04;42.47;67.06;;
37279;Laerm;7458;49.002;8.472;2023-07-16T11:37:34;45.39;40.43;61.95;;
37279;Laerm;7458;49.002;8.472;2023-07-16T11:40:08;49.53;41.22;68.13;;
37279;Laerm;7458;49.002;8.472;2023-07-16T11:42:39;51.59;40.71;71.72;;
37279;Laerm;7458;49.002;8.472;2023-07-16T11:45:16;49.99;42.03;66.34;;
37279;Laerm;7458;49.002;8.472;2023-07-16T11:47:42;56.50;42.98;75.04;;
37279;Laerm;7458;49.002;8.472;2023-07-16T11:50:08;53.18;41.22;72.67;;
37279;Laerm;7458;49.002;8.472;2023-07-16T11:52:34;49.26;41.30;60.58;;
37279;Laerm;7458;49.002;8.472;2023-07-16T11:55:00;50.98;39.46;69.01;;
37279;Laerm;7458;49.002;8.472;2023-07-16T11:57:27;51.96;40.98;73.58;;
37279;Laerm;7458;49.002;8.472;2023-07-16T11:59:53;52.72;40.62;67.51;;
37279;Laerm;7458;49.002;8.472;2023-07-16T12:02:20;52.79;43.77;66.56;;
37279;Laerm;7458;49.002;8.472;2023-07-16T12:04:46;55.89;39.92;72.62;;
37279;Laerm;7458;49.002;8.472;2023-07-16T12:07:12;53.37;41.46;70.98;;
37279;Laerm;7458;49.002;8.472;2023-07-16T12:09:38;47.79;39.92;63.53;;
37279;Laerm;7458;49.002;8.472;2023-07-16T12:12:05;54.18;41.30;69.06;;
37279;Laerm;7458;49.002;8.472;2023-07-16T12:14:31;50.30;41.75;62.66;;
37279;Laerm;7458;49.002;8.472;2023-07-16T12:16:58;52.91;40.53;77.35;;
37279;Laerm;7458;49.002;8.472;2023-07-16T12:19:25;53.95;40.08;71.16;;
37279;Laerm;7458;49.002;8.472;2023-07-16T12:21:51;53.21;38.52;78.02;;
37279;Laerm;7458;49.002;8.472;2023-07-16T12:24:17;47.58;39.81;61.54;;
37279;Laerm;7458;49.002;8.472;2023-07-16T12:26:43;53.30;39.70;71.09;;
37279;Laerm;7458;49.002;8.472;2023-07-16T12:29:08;53.36;39.58;73.44;;
37279;Laerm;7458;49.002;8.472;2023-07-16T12:31:34;49.20;39.08;67.67;;
37279;Laerm;7458;49.002;8.472;2023-07-16T12:34:01;44.95;37.88;64.04;;
37279;Laerm;7458;49.002;8.472;2023-07-16T12:36:30;52.25;39.81;68.62;;
37279;Laerm;7458;49.002;8.472;2023-07-16T12:38:56;52.60;40.13;71.13;;
37279;Laerm;7458;49.002;8.472;2023-07-16T12:41:22;56.09;41.75;73.11;;
37279;Laerm;7458;49.002;8.472;2023-07-16T12:43:48;54.07;40.33;69.05;;
37279;Laerm;7458;49.002;8.472;2023-07-16T12:46:14;50.13;39.70;63.96;;
37279;Laerm;7458;49.002;8.472;2023-07-16T12:48:40;50.99;40.23;71.45;;
37279;Laerm;7458;49.002;8.472;2023-07-16T12:51:06;52.16;40.89;68.68;;
37279;Laerm;7458;49.002;8.472;2023-07-16T12:53:32;48.85;38.67;66.67;;
37279;Laerm;7458;49.002;8.472;2023-07-16T12:56:01;51.45;39.21;67.31;;
37279;Laerm;7458;49.002;8.472;2023-07-16T12:58:28;52.16;38.81;70.97;;
37279;Laerm;7458;49.002;8.472;2023-07-16T13:00:54;51.59;40.03;69.75;;
37279;Laerm;7458;49.002;8.472;2023-07-16T13:03:20;51.58;39.92;67.23;;
37279;Laerm;7458;49.002;8.472;2023-07-16T13:05:47;53.95;41.96;70.94;;
37279;Laerm;7458;49.002;8.472;2023-07-16T13:08:13;51.62;39.35;70.59;;
37279;Laerm;7458;49.002;8.472;2023-07-16T13:10:39;46.80;39.81;62.42;;
37279;Laerm;7458;49.002;8.472;2023-07-16T13:13:05;49.63;38.21;68.29;;
37279;Laerm;7458;49.002;8.472;2023-07-16T13:15:33;49.97;38.52;69.34;;
37279;Laerm;7458;49.002;8.472;2023-07-16T13:17:59;52.86;38.67;70.50;;
37279;Laerm;7458;49.002;8.472;2023-07-16T13:20:25;50.69;38.21;67.37;;
37279;Laerm;7458;49.002;8.472;2023-07-16T13:22:51;48.64;40.13;67.66;;
37279;Laerm;7458;49.002;8.472;2023-07-16T13:25:17;52.45;40.13;66.52;;
37279;Laerm;7458;49.002;8.472;2023-07-16T13:27:43;50.72;39.58;73.54;;
37279;Laerm;7458;49.002;8.472;2023-07-16T13:30:09;44.89;38.67;54.40;;
37279;Laerm;7458;49.002;8.472;2023-07-16T13:32:35;62.27;38.81;84.18;;
37279;Laerm;7458;49.002;8.472;2023-07-16T13:35:01;46.92;38.67;69.46;;
37279;Laerm;7458;49.002;8.472;2023-07-16T13:37:26;55.47;39.21;72.91;;
37279;Laerm;7458;49.002;8.472;2023-07-16T13:39:54;56.35;40.23;73.20;;
37279;Laerm;7458;49.002;8.472;2023-07-16T13:42:19;51.25;40.23;68.37;;
37279;Laerm;7458;49.002;8.472;2023-07-16T13:44:45;55.51;41.53;76.58;;
37279;Laerm;7458;49.002;8.472;2023-07-16T13:47:11;54.94;41.14;74.53;;
37279;Laerm;7458;49.002;8.472;2023-07-16T13:49:37;55.68;41.06;75.59;;
37279;Laerm;7458;49.002;8.472;2023-07-16T13:52:03;51.90;40.98;69.55;;
37279;Laerm;7458;49.002;8.472;2023-07-16T13:54:29;49.77;40.80;65.41;;
37279;Laerm;7458;49.002;8.472;2023-07-16T13:56:54;54.29;42.22;74.54;;
37279;Laerm;7458;49.002;8.472;2023-07-16T13:59:20;52.06;42.98;64.71;;
37279;Laerm;7458;49.002;8.472;2023-07-16T14:01:46;54.87;41.22;74.26;;